Time;durP1;ratioP1;P1;durP2;ratioP2;P2;SDS_P1;SDS_P2;PMS_P1;PMS_P2;Temp;Humidity;BMP_temperature;BMP_pressure;BME280_temperature;BME280_humidity;BME280_pressure;Samples;Min_cycle;Max_cycle;Signal;HPM_P1;HPM_P2
2023/02/12 00:01:08;;;;;;;;;;;;;;;-142.75;100.00;79350.75;4935985;29;20078;-66
2023/02/12 00:03:34;;;;;;;14.27;6.47;;;;;;;-142.75;100.00;79386.19;4935934;29;19966;-67
2023/02/12 00:06:01;;;;;;;;;;;;;;;-142.75;100.00;79394.09;4936383;29;20054;-65
2023/02/12 00:08:26;;;;;;;10.40;5.70;;;;;;;-142.75;100.00;79370.44;4935883;29;19958;-67
2023/02/12 00:10:51;;;;;;;;;;;;;;;-142.75;100.00;79374.38;4936879;29;20043;-66
2023/02/12 00:13:17;;;;;;;11.37;7.17;;;;;;;-142.75;100.00;79374.38;4937240;29;19949;-66
2023/02/12 00:15:42;;;;;;;;;;;;;;;-142.75;100.00;79370.44;4936515;29;20027;-66
2023/02/12 00:18:08;;;;;;;13.07;7.17;;;;;;;-142.75;100.00;79366.50;4936672;29;20394;-66
2023/02/12 00:20:36;;;;;;;10.97;7.00;;;;;;;-142.75;100.00;79374.38;4934873;29;20027;-66
2023/02/12 00:23:01;;;;;;;14.20;7.68;;;;;;;-142.75;100.00;79378.31;4931955;29;20016;-66
2023/02/12 00:25:26;;;;;;;;;;;;;;;-142.75;100.00;79388.16;4935759;29;20572;-66
2023/02/12 00:27:52;;;;;;;15.63;8.13;;;;;;;-142.75;100.00;79380.28;4934396;29;20408;-66
2023/02/12 00:30:17;;;;;;;;;;;;;;;-142.75;100.00;79370.44;4936697;29;20099;-65
2023/02/12 00:32:44;;;;;;;10.77;6.78;;;;;;;-142.75;100.00;79382.25;4935760;29;20001;-66
2023/02/12 00:35:10;;;;;;;13.90;7.65;;;;;;;-142.75;100.00;79362.56;4936673;29;20098;-66
2023/02/12 00:37:35;;;;;;;;;;;;;;;-142.75;100.00;79370.44;4936627;29;20433;-67
2023/02/12 00:40:01;;;;;;;16.53;7.77;;;;;;;-142.75;100.00;79400.00;4934659;29;20332;-67
2023/02/12 00:42:27;;;;;;;;;;;;;;;-142.75;100.00;79386.19;4933030;29;20031;-66
2023/02/12 00:44:52;;;;;;;12.10;7.43;;;;;;;-142.75;100.00;79378.31;4934223;29;19918;-66
2023/02/12 00:47:17;;;;;;;;;;;;;;;-142.75;100.00;79360.59;4934325;29;20027;-65
2023/02/12 00:49:43;;;;;;;12.13;7.68;;;;;;;-142.75;100.00;79368.47;4934046;29;19910;-66
2023/02/12 00:52:08;;;;;;;;;;;;;;;-142.75;100.00;79362.56;4931824;29;20028;-66
2023/02/12 00:54:33;;;;;;;11.83;7.50;;;;;;;-142.75;100.00;79354.69;4934045;29;20380;-67
2023/02/12 00:56:59;;;;;;;;;;;;;;;-142.75;100.00;79378.31;4934411;29;20041;-66
2023/02/12 00:59:25;;;;;;;11.40;7.17;;;;;;;-142.75;100.00;79398.03;4934003;29;19915;-65
2023/02/12 01:01:52;;;;;;;9.33;6.33;;;;;;;-142.75;100.00;79403.94;4934147;29;20035;-66
2023/02/12 01:04:18;;;;;;;10.27;5.97;;;;;;;-142.75;100.00;79398.03;4934620;29;20028;-65
2023/02/12 01:06:43;;;;;;;;;;;;;;;-142.75;100.00;79392.13;4939201;29;20027;-66
2023/02/12 01:09:08;;;;;;;12.60;7.73;;;;;;;-142.75;100.00;79374.38;4941059;29;19937;-65
2023/02/12 01:11:34;;;;;;;13.70;7.77;;;;;;;-142.75;100.00;79362.56;4942808;29;20066;-65
2023/02/12 01:13:59;;;;;;;;;;;;;;;-142.75;100.00;79350.75;4935119;29;20125;-65
2023/02/12 01:16:25;;;;;;;13.37;8.37;;;;;;;-142.75;100.00;79358.63;4934980;29;20061;-65
2023/02/12 01:18:52;;;;;;;14.90;8.80;;;;;;;-142.75;100.00;79374.38;4935662;29;20023;-66
2023/02/12 01:21:20;;;;;;;15.47;8.80;;;;;;;-142.75;100.00;79388.16;4936686;29;20634;-65
2023/02/12 01:23:47;;;;;;;14.85;7.53;;;;;;;-142.75;100.00;79405.91;4937694;29;20030;-66
2023/02/12 01:26:14;;;;;;;10.80;7.10;;;;;;;-142.75;100.00;79409.84;4933062;29;20412;-65
2023/02/12 01:28:41;;;;;;;10.35;6.53;;;;;;;-142.75;100.00;79427.56;4933707;29;20035;-65
2023/02/12 01:31:12;;;;;;;12.23;7.93;;;;;;;-142.75;100.00;79453.19;4940349;28;20040;-65
2023/02/12 01:33:38;;;;;;;11.70;8.23;;;;;;;-142.75;100.00;79405.91;4941039;29;20130;-65
2023/02/12 01:36:03;;;;;;;;;;;;;;;-142.75;100.00;79405.91;4943051;29;20491;-66
2023/02/12 01:38:28;;;;;;;14.13;8.57;;;;;;;-142.75;100.00;79413.78;4932746;29;19910;-65
2023/02/12 01:41:00;;;;;;;;;;;;;;;-142.75;100.00;79398.03;4932707;29;20039;-66
2023/02/12 01:43:26;;;;;;;12.20;7.90;;;;;;;-142.75;100.00;79394.09;4929206;29;19910;-66
2023/02/12 01:45:52;;;;;;;;;;;;;;;-142.75;100.00;79407.88;4934545;29;20061;-66
2023/02/12 01:48:19;;;;;;;13.70;7.87;;;;;;;-142.75;100.00;79382.25;4933398;29;20275;-65
2023/02/12 01:50:46;;;;;;;15.47;9.07;;;;;;;-142.75;100.00;79386.19;4935094;28;20043;-65
2023/02/12 01:53:18;;;;;;;13.73;8.63;;;;;;;-142.75;100.00;79386.19;4933832;29;20485;-66
2023/02/12 01:55:46;;;;;;;14.13;8.50;;;;;;;-142.75;100.00;79388.16;4935621;29;20028;-66
2023/02/12 01:58:11;;;;;;;13.80;8.77;;;;;;;-142.75;100.00;79390.13;4936642;29;20051;-66
2023/02/12 02:00:36;;;;;;;;;;;;;;;-142.75;100.00;79398.03;4936909;29;20423;-66
2023/02/12 02:03:02;;;;;;;14.30;8.30;;;;;;;-142.75;100.00;79403.94;4938824;29;20287;-65
2023/02/12 02:05:30;;;;;;;;;;;;;;;-142.75;100.00;79403.94;4937892;29;20628;-66
2023/02/12 02:07:56;;;;;;;13.43;7.83;;;;;;;-142.75;100.00;79394.09;4937179;29;19911;-65
2023/02/12 02:10:21;;;;;;;;;;;;;;;-142.75;100.00;79392.13;4939048;29;20027;-66
2023/02/12 02:15:32;;;;;;;16.23;8.50;;;;;;;-142.75;100.00;79419.69;4937174;29;20061;-66
2023/02/12 02:18:09;;;;;;;16.23;8.50;;;;;;;-142.75;100.00;79423.63;4936793;29;20031;-65
2023/02/12 02:20:52;;;;;;;12.03;7.67;;;;;;;-142.75;100.00;79437.41;4937039;29;20034;-66
2023/02/12 02:23:23;;;;;;;13.37;8.40;;;;;;;-142.75;100.00;79421.66;4936932;29;20023;-66
2023/02/12 02:25:49;;;;;;;17.80;9.67;;;;;;;-142.75;100.00;79441.34;4937047;29;20027;-66
2023/02/12 02:28:17;;;;;;;;;;;;;;;-142.75;100.00;79453.19;4937010;29;20027;-66
2023/02/12 02:30:56;;;;;;;16.80;8.33;;;;;;;-142.75;100.00;79413.78;4936779;29;19923;-66
2023/02/12 02:33:24;;;;;;;15.47;8.50;;;;;;;-142.75;100.00;79415.75;4936795;29;20035;-64
2023/02/12 02:36:06;;;;;;;15.80;9.33;;;;;;;-142.75;100.00;79405.91;4936791;29;20024;-66
2023/02/12 02:38:49;;;;;;;16.57;9.47;;;;;;;-142.75;100.00;79409.84;4936455;29;20028;-66
2023/02/12 02:41:27;;;;;;;13.60;9.27;;;;;;;-142.75;100.00;79417.72;4936671;29;20481;-64
2023/02/12 02:43:53;;;;;;;14.30;9.67;;;;;;;-142.75;100.00;79413.78;4936640;29;20027;-65
2023/02/12 02:46:22;;;;;;;16.27;9.07;;;;;;;-142.75;100.00;79411.81;4935531;29;21435;-65
2023/02/12 02:48:52;;;;;;;15.13;9.50;;;;;;;-142.75;100.00;79403.94;4936309;29;20028;-66
2023/02/12 02:51:27;;;;;;;14.73;8.70;;;;;;;-142.75;100.00;79405.91;4936555;29;20425;-66
2023/02/12 02:54:01;;;;;;;12.90;8.67;;;;;;;-142.75;100.00;79411.81;4936367;29;20035;-66
2023/02/12 02:56:29;;;;;;;18.60;9.37;;;;;;;-142.75;100.00;79398.03;4936362;29;20032;-66
2023/02/12 02:59:06;;;;;;;14.40;9.03;;;;;;;-142.75;100.00;79398.03;4935860;29;20095;-65
2023/02/12 03:01:38;;;;;;;12.17;8.20;;;;;;;-142.75;100.00;79398.03;4936336;29;20445;-66
2023/02/12 03:04:26;;;;;;;12.80;7.87;;;;;;;-142.75;100.00;79398.03;4935539;29;20042;-66
2023/02/12 03:07:03;;;;;;;13.30;8.50;;;;;;;-142.75;100.00;79398.03;4936175;29;20024;-66
2023/02/12 03:09:36;;;;;;;15.07;8.57;;;;;;;-142.75;100.00;79398.03;4936026;29;20385;-66
2023/02/12 03:12:13;;;;;;;11.80;8.30;;;;;;;-142.75;100.00;79407.88;4936086;29;20034;-66
2023/02/12 03:15:05;;;;;;;13.07;8.33;;;;;;;-142.75;100.00;79413.78;4934773;29;20380;-66
2023/02/12 03:17:34;;;;;;;14.33;8.43;;;;;;;-142.75;100.00;79394.09;4935799;29;20019;-66
2023/02/12 03:20:04;;;;;;;13.63;8.70;;;;;;;-142.75;100.00;79394.09;4936114;29;20039;-66
2023/02/12 03:22:34;;;;;;;13.30;8.00;;;;;;;-142.75;100.00;79405.91;4935973;29;20082;-66
2023/02/12 03:25:12;;;;;;;11.73;7.93;;;;;;;-142.75;100.00;79409.84;4935902;29;20046;-66
2023/02/12 03:27:45;;;;;;;15.23;8.93;;;;;;;-142.75;100.00;79413.78;4935497;29;20023;-66
2023/02/12 03:30:12;;;;;;;13.93;8.57;;;;;;;-142.75;100.00;79421.66;4935611;29;20012;-66
2023/02/12 03:33:04;;;;;;;12.73;7.93;;;;;;;-142.75;100.00;79398.03;4935677;29;20019;-66
2023/02/12 03:35:35;;;;;;;15.23;8.47;;;;;;;-142.75;100.00;79413.78;4935819;29;20484;-66
2023/02/12 03:38:09;;;;;;;16.77;8.60;;;;;;;-142.75;100.00;79409.84;4935413;29;20102;-66
2023/02/12 03:41:05;;;;;;;13.93;8.47;;;;;;;-142.75;100.00;79413.78;4935599;29;20023;-66
2023/02/12 03:43:54;;;;;;;14.20;8.90;;;;;;;-142.75;100.00;79423.63;4935138;29;20051;-66
2023/02/12 03:46:26;;;;;;;16.87;8.63;;;;;;;-142.75;100.00;79413.78;4935551;29;20024;-66
2023/02/12 03:48:57;;;;;;;14.47;7.67;;;;;;;-142.75;100.00;79405.91;4935347;29;20020;-66
2023/02/12 03:51:28;;;;;;;12.13;6.97;;;;;;;-142.75;100.00;79417.72;4935320;29;20087;-66
2023/02/12 03:53:56;;;;;;;15.03;8.10;;;;;;;-142.75;100.00;79409.84;4935425;29;20027;-66
2023/02/12 03:56:36;;;;;;;15.97;8.50;;;;;;;-142.75;100.00;79415.75;4935381;29;20515;-66
2023/02/12 03:59:03;;;;;;;13.43;8.10;;;;;;;-142.75;100.00;79409.84;4934880;29;20417;-66
2023/02/12 04:01:30;;;;;;;12.53;7.83;;;;;;;-142.75;100.00;79421.66;4935062;29;20120;-66
2023/02/12 04:03:56;;;;;;;14.33;8.20;;;;;;;-142.75;100.00;79429.53;4935154;29;20039;-66
2023/02/12 04:06:25;;;;;;;;;;;;;;;-142.75;100.00;79423.63;4935647;29;20019;-66
2023/02/12 04:08:54;;;;;;;14.83;7.87;;;;;;;-142.75;100.00;79429.53;4934764;29;19910;-66
2023/02/12 04:11:29;;;;;;;13.40;7.37;;;;;;;-142.75;100.00;79421.66;4935006;29;20059;-65
2023/02/12 04:14:13;;;;;;;14.77;8.20;;;;;;;-142.75;100.00;79425.59;4935068;29;20106;-66
2023/02/12 04:17:07;;;;;;;12.57;7.63;;;;;;;-142.75;100.00;79435.44;4933659;29;20097;-66
2023/02/12 04:19:53;;;;;;;11.30;7.70;;;;;;;-142.75;100.00;79443.31;4934604;29;20047;-66
2023/02/12 04:22:21;;;;;;;11.63;7.15;;;;;;;-142.75;100.00;79465.00;4934815;29;20030;-66
2023/02/12 04:25:14;;;;;;;11.43;7.60;;;;;;;-142.75;100.00;79457.13;4934790;29;20028;-66
2023/02/12 04:27:52;;;;;;;15.03;7.10;;;;;;;-142.75;100.00;79453.19;4934712;29;20024;-66
2023/02/12 04:30:27;;;;;;;13.03;7.87;;;;;;;-142.75;100.00;79465.00;4934671;29;20030;-65
2023/02/12 04:33:01;;;;;;;12.57;7.10;;;;;;;-142.75;100.00;79465.00;4934481;29;20043;-66
2023/02/12 04:35:33;;;;;;;13.63;7.50;;;;;;;-142.75;100.00;79455.16;4934532;29;20358;-65
2023/02/12 04:38:08;;;;;;;12.90;7.27;;;;;;;-142.75;100.00;79461.06;4934457;29;20035;-65
2023/02/12 04:40:35;;;;;;;12.35;7.28;;;;;;;-142.75;100.00;79451.22;4934549;29;20027;-66
2023/02/12 04:43:00;;;;;;;13.70;8.23;;;;;;;-142.75;100.00;79455.16;4934449;29;20028;-65
2023/02/12 04:45:27;;;;;;;;;;;;;;;-142.75;100.00;79461.06;4933663;29;20023;-66
2023/02/12 04:47:52;;;;;;;12.70;7.37;;;;;;;-142.75;100.00;79466.97;4934108;29;19917;-66
2023/02/12 04:50:17;;;;;;;;;;;;;;;-142.75;100.00;79468.94;4934866;29;20020;-65
2023/02/12 04:52:43;;;;;;;11.13;6.97;;;;;;;-142.75;100.00;79461.06;4934255;29;19929;-66
2023/02/12 04:55:08;;;;;;;;;;;;;;;-142.75;100.00;79461.06;4934815;29;20031;-66
2023/02/12 04:57:33;;;;;;;10.23;6.37;;;;;;;-142.75;100.00;79478.78;4934052;29;19911;-66
2023/02/12 04:59:59;;;;;;;11.07;6.33;;;;;;;-142.75;100.00;79463.03;4933943;29;20055;-66
2023/02/12 05:02:24;;;;;;;;;;;;;;;-142.75;100.00;79453.19;4934601;29;20027;-66
2023/02/12 05:04:49;;;;;;;12.83;7.17;;;;;;;-142.75;100.00;79466.97;4934242;29;19918;-66
2023/02/12 05:07:15;;;;;;;;;;;;;;;-142.75;100.00;79459.09;4934504;29;20023;-65
2023/02/12 05:09:41;;;;;;;14.17;6.50;;;;;;;-142.75;100.00;79459.09;4932828;29;20017;-66
2023/02/12 05:12:06;;;;;;;;;;;;;;;-142.75;100.00;79466.97;4934546;29;20111;-66
2023/02/12 05:14:31;;;;;;;12.97;7.53;;;;;;;-142.75;100.00;79476.81;4934016;29;19911;-66
2023/02/12 05:16:56;;;;;;;;;;;;;;;-142.75;100.00;79480.75;4934523;29;20035;-66
2023/02/12 05:19:22;;;;;;;11.57;6.87;;;;;;;-142.75;100.00;79484.69;4933942;29;19926;-66
2023/02/12 05:21:48;;;;;;;;;;;;;;;-142.75;100.00;79482.72;4934432;29;20087;-66
2023/02/12 05:24:14;;;;;;;12.50;6.73;;;;;;;-142.75;100.00;79476.81;4934173;29;19911;-65
2023/02/12 05:26:39;;;;;;;;;;;;;;;-142.75;100.00;79468.94;4932532;29;20074;-66
2023/02/12 05:29:05;;;;;;;19.77;8.20;;;;;;;-142.75;100.00;79476.81;4933555;29;19910;-66
2023/02/12 05:31:30;;;;;;;12.90;7.13;;;;;;;-142.75;100.00;79474.84;4933813;29;20035;-64
2023/02/12 05:33:55;;;;;;;14.10;7.83;;;;;;;-142.75;100.00;79484.69;4933763;29;20179;-66
2023/02/12 05:36:22;;;;;;;;;;;;;;;-142.75;100.00;79465.00;4934256;29;20511;-66
2023/02/12 05:38:48;;;;;;;10.33;6.33;;;;;;;-142.75;100.00;79459.09;4933501;29;19921;-66
2023/02/12 05:41:17;;;;;;;9.83;6.73;;;;;;;-142.75;100.00;79470.91;4933730;29;20111;-66
2023/02/12 05:43:42;;;;;;;19.50;8.67;;;;;;;-142.75;100.00;79476.81;4933630;29;20071;-66
2023/02/12 05:46:08;;;;;;;;;;;;;;;-142.75;100.00;79472.88;4933891;29;20028;-65
2023/02/12 05:48:34;;;;;;;10.47;6.20;;;;;;;-142.75;100.00;79480.75;4933565;29;19910;-66
2023/02/12 05:51:14;;;;;;;12.37;6.53;;;;;;;-142.75;100.00;79476.81;4933755;29;20024;-66
2023/02/12 05:53:40;;;;;;;13.33;7.90;;;;;;;-142.75;100.00;79496.50;4943031;23;20048;-68
2023/02/12 05:56:18;;;;;;;14.20;7.90;;;;;;;-142.75;100.00;79492.56;4932018;29;20070;-67
2023/02/12 05:58:46;;;;;;;12.30;6.97;;;;;;;-142.75;100.00;79490.59;4932804;29;20020;-67
2023/02/12 06:01:14;;;;;;;11.73;7.00;;;;;;;-142.75;100.00;79504.41;4933326;29;20032;-68
2023/02/12 06:03:39;;;;;;;14.10;6.63;;;;;;;-142.75;100.00;79498.47;4933151;29;20477;-67
2023/02/12 06:06:05;;;;;;;;;;;;;;;-142.75;100.00;79500.47;4932623;29;20039;-66
2023/02/12 06:08:30;;;;;;;13.87;7.33;;;;;;;-142.75;100.00;79520.16;4931776;29;19911;-66
2023/02/12 06:11:02;;;;;;;11.57;6.87;;;;;;;-142.75;100.00;79504.41;4932123;29;20015;-66
2023/02/12 06:13:27;;;;;;;12.10;6.50;;;;;;;-142.75;100.00;79494.53;4933171;29;20027;-67
2023/02/12 06:15:53;;;;;;;;;;;;;;;-142.75;100.00;79480.75;4933515;29;20016;-67
2023/02/12 06:18:18;;;;;;;12.37;7.40;;;;;;;-142.75;100.00;79494.53;4932825;29;20374;-66
2023/02/12 06:20:43;;;;;;;;;;;;;;;-142.75;100.00;79486.66;4933406;29;20167;-67
2023/02/12 06:23:09;;;;;;;14.63;8.10;;;;;;;-142.75;100.00;79492.56;4932935;29;19911;-68
2023/02/12 06:25:34;;;;;;;;;;;;;;;-142.75;100.00;79480.75;4933489;29;20070;-67
2023/02/12 06:27:59;;;;;;;13.27;7.27;;;;;;;-142.75;100.00;79484.69;4947506;29;19946;-67
2023/02/12 06:30:25;;;;;;;11.00;7.20;;;;;;;-142.75;100.00;79486.66;4933046;29;20031;-68
2023/02/12 06:32:50;;;;;;;;;;;;;;;-142.75;100.00;79492.56;4931792;29;20020;-67
2023/02/12 06:35:15;;;;;;;10.60;6.70;;;;;;;-142.75;100.00;79502.44;4932971;29;19918;-66
2023/02/12 06:37:40;;;;;;;;;;;;;;;-142.75;100.00;79496.50;4947679;28;20031;-67
2023/02/12 06:40:07;;;;;;;14.27;6.93;;;;;;;-142.75;100.00;79500.47;4936413;29;19922;-66
2023/02/12 06:42:32;;;;;;;12.20;6.80;;;;;;;-142.75;100.00;79508.34;4934885;29;20034;-68
2023/02/12 06:44:57;;;;;;;;;;;;;;;-142.75;100.00;79518.19;4936849;29;20023;-68
2023/02/12 06:47:23;;;;;;;15.03;6.67;;;;;;;-142.75;100.00;79514.25;4935888;29;19917;-68
2023/02/12 06:49:48;;;;;;;;;;;;;;;-142.75;100.00;79520.16;4935410;29;20024;-68
2023/02/12 06:52:13;;;;;;;9.97;6.90;;;;;;;-142.75;100.00;79524.09;4935978;29;20339;-66
2023/02/12 06:54:39;;;;;;;;;;;;;;;-142.75;100.00;79549.69;4935229;29;20089;-66
2023/02/12 06:57:04;;;;;;;11.83;7.27;;;;;;;-142.75;100.00;79557.59;4936051;29;19918;-66
2023/02/12 06:59:29;;;;;;;;;;;;;;;-142.75;100.00;79551.69;4936202;29;20028;-67
2023/02/12 07:01:54;;;;;;;10.20;6.77;;;;;;;-142.75;100.00;79557.59;4936014;29;20276;-67
2023/02/12 07:04:20;;;;;;;;;;;;;;;-142.75;100.00;79549.69;4936448;29;20032;-67
2023/02/12 07:06:45;;;;;;;9.70;6.83;;;;;;;-142.75;100.00;79547.72;4935916;29;20006;-67
2023/02/12 07:09:11;;;;;;;;;;;;;;;-142.75;100.00;79545.75;4936137;29;20019;-66
2023/02/12 07:11:36;;;;;;;11.67;6.90;;;;;;;-142.75;100.00;79555.63;4934459;29;19965;-66
2023/02/12 07:14:02;;;;;;;11.17;6.33;;;;;;;-142.75;100.00;79553.63;4935796;29;20393;-67
2023/02/12 07:16:27;;;;;;;;;;;;;;;-142.75;100.00;79543.78;4934816;29;20423;-66
2023/02/12 07:18:52;;;;;;;14.07;6.93;;;;;;;-142.75;100.00;79557.59;4935519;29;20275;-67
2023/02/12 07:21:18;;;;;;;;;;;;;;;-142.75;100.00;79563.50;4936132;29;20140;-67
2023/02/12 07:23:49;;;;;;;11.07;6.97;;;;;;;-142.75;100.00;79563.50;4934120;29;20347;-68
2023/02/12 07:26:16;;;;;;;12.20;7.73;;;;;;;-142.75;100.00;79571.38;4935646;29;20114;-66
2023/02/12 07:28:41;;;;;;;16.27;7.57;;;;;;;-142.75;100.00;79559.56;4935186;29;20036;-67
2023/02/12 07:31:08;;;;;;;;;;;;;;;-142.75;100.00;79557.59;4934946;29;20091;-67
2023/02/12 07:33:34;;;;;;;9.95;6.18;;;;;;;-142.75;100.00;79559.56;4935420;29;19933;-66
2023/02/12 07:36:00;;;;;;;13.60;7.23;;;;;;;-142.75;100.00;79569.41;4934160;29;20031;-67
2023/02/12 07:38:25;;;;;;;11.67;7.13;;;;;;;-142.75;100.00;79561.53;4934139;29;20081;-66
2023/02/12 07:40:51;;;;;;;;;;;;;;;-142.75;100.00;79575.31;4935866;29;20047;-66
2023/02/12 07:43:16;;;;;;;12.20;7.27;;;;;;;-142.75;100.00;79577.28;4935359;29;20056;-66
2023/02/12 07:45:41;;;;;;;;;;;;;;;-142.75;100.00;79561.53;4935567;29;20058;-68
2023/02/12 07:48:06;;;;;;;11.33;6.37;;;;;;;-142.75;100.00;79569.41;4934741;29;19977;-66
2023/02/12 07:50:32;;;;;;;;;;;;;;;-142.75;100.00;79577.28;4935044;29;20047;-67
2023/02/12 07:52:57;;;;;;;12.60;7.00;;;;;;;-142.75;100.00;79575.31;4934900;29;19910;-66
2023/02/12 07:55:22;;;;;;;;;;;;;;;-142.75;100.00;79567.44;4935337;29;20455;-67
2023/02/12 07:57:47;;;;;;;12.97;7.60;;;;;;;-142.75;100.00;79565.47;4934615;29;19910;-67
2023/02/12 08:00:13;;;;;;;;;;;;;;;-142.75;100.00;79569.41;4935289;29;20027;-67
2023/02/12 08:02:38;;;;;;;10.60;6.83;;;;;;;-142.75;100.00;79563.50;4934713;29;20006;-66
2023/02/12 08:05:04;;;;;;;;;;;;;;;-142.75;100.00;79573.34;4935342;29;20058;-66
2023/02/12 08:07:29;;;;;;;10.87;6.50;;;;;;;-142.75;100.00;79559.56;4934234;29;19961;-66
2023/02/12 08:09:54;;;;;;;;;;;;;;;-142.75;100.00;79549.69;4935260;29;20492;-68
2023/02/12 08:12:20;;;;;;;9.57;5.90;;;;;;;-142.75;100.00;79561.53;4934748;29;19926;-67
2023/02/12 08:14:45;;;;;;;14.93;7.63;;;;;;;-142.75;100.00;79567.44;4934972;29;20474;-67
2023/02/12 08:17:10;;;;;;;;;;;;;;;-142.75;100.00;79551.69;4935174;29;20131;-67
2023/02/12 08:19:36;;;;;;;13.50;8.30;;;;;;;-142.75;100.00;79549.69;4934461;29;19961;-66
2023/02/12 08:22:02;;;;;;;14.87;7.93;;;;;;;-142.75;100.00;79553.63;4933167;29;20043;-69
2023/02/12 08:24:27;;;;;;;;;;;;;;;-142.75;100.00;79537.88;4934949;29;20440;-67
2023/02/12 08:26:53;;;;;;;12.27;7.33;;;;;;;-142.75;100.00;79528.03;4934460;29;20315;-67
2023/02/12 08:29:20;;;;;;;;;;;;;;;-142.75;100.00;79528.03;4934470;29;20020;-68
2023/02/12 08:31:48;;;;;;;15.60;8.88;;;;;;;-142.75;100.00;79533.94;4934322;29;20072;-66
2023/02/12 08:34:15;;;;;;;16.97;8.13;;;;;;;-142.75;100.00;79524.09;4934253;29;20030;-66
2023/02/12 08:36:41;;;;;;;13.90;7.73;;;;;;;-142.75;100.00;79522.13;4934182;29;20026;-67
2023/02/12 08:39:06;;;;;;;;;;;;;;;-142.75;100.00;79518.19;4934390;29;20469;-67
2023/02/12 08:41:33;;;;;;;14.17;7.80;;;;;;;-142.75;100.00;79522.13;4932939;29;19923;-67
2023/02/12 08:44:01;;;;;;;13.80;7.97;;;;;;;-142.75;100.00;79530.00;4934040;29;20031;-67
2023/02/12 08:46:29;;;;;;;14.93;9.20;;;;;;;-142.75;100.00;79516.22;4934051;29;20047;-68
2023/02/12 08:49:00;;;;;;;12.90;8.07;;;;;;;-142.75;100.00;79518.19;4932579;29;20024;-66
2023/02/12 08:51:29;;;;;;;14.07;8.13;;;;;;;-142.75;100.00;79508.34;4934069;29;20081;-68
2023/02/12 08:53:56;;;;;;;12.97;7.93;;;;;;;-142.75;100.00;79496.50;4933828;29;20050;-67
2023/02/12 08:56:22;;;;;;;13.77;8.30;;;;;;;-142.75;100.00;79500.47;4933939;29;20079;-67
2023/02/12 08:58:48;;;;;;;35.13;18.47;;;;;;;-142.75;100.00;79502.44;4933590;29;20023;-66
2023/02/12 09:01:19;;;;;;;19.13;11.53;;;;;;;-142.75;100.00;79516.22;4932028;29;20024;-66
2023/02/12 09:03:45;;;;;;;14.03;8.37;;;;;;;-142.75;100.00;79520.16;4935142;29;20027;-66
2023/02/12 09:06:11;;;;;;;12.27;7.13;;;;;;;-142.75;100.00;79516.22;4940627;29;20476;-66
2023/02/12 09:08:38;;;;;;;18.37;8.67;;;;;;;-142.75;100.00;79528.03;4933724;29;20027;-64
2023/02/12 09:11:08;;;;;;;15.60;8.30;;;;;;;-142.75;100.00;79528.03;4932202;29;20035;-66
2023/02/12 09:13:35;;;;;;;19.40;9.10;;;;;;;-142.75;100.00;79518.19;4932819;29;20392;-67
2023/02/12 09:16:02;;;;;;;13.83;7.93;;;;;;;-142.75;100.00;79516.22;4934102;29;20028;-66
2023/02/12 09:18:27;;;;;;;12.90;8.63;;;;;;;-142.75;100.00;79508.34;4933212;29;20094;-65
2023/02/12 09:20:53;;;;;;;;;;;;;;;-142.75;100.00;79500.47;4933844;29;20111;-66
2023/02/12 09:23:18;;;;;;;13.37;7.90;;;;;;;-142.75;100.00;79506.38;4933544;29;19918;-66
2023/02/12 09:25:44;;;;;;;;;;;;;;;-142.75;100.00;79490.59;4932633;29;20537;-66
2023/02/12 09:28:11;;;;;;;12.83;7.70;;;;;;;-142.75;100.00;79496.50;4933249;29;19989;-66
2023/02/12 09:30:38;;;;;;;18.33;8.20;;;;;;;-142.75;100.00;79496.50;4933427;29;20504;-66
2023/02/12 09:33:05;;;;;;;16.70;8.40;;;;;;;-142.75;100.00;79476.81;4932121;29;20024;-67
2023/02/12 09:35:34;;;;;;;15.50;8.73;;;;;;;-142.75;100.00;79476.81;4933351;29;20058;-67
2023/02/12 09:38:00;;;;;;;12.83;8.10;;;;;;;-142.75;100.00;79476.81;4933121;29;20028;-67
2023/02/12 09:40:42;;;;;;;;;;;;;;;-142.75;100.00;79470.91;4933794;29;20031;-67
2023/02/12 09:43:17;;;;;;;13.37;7.60;;;;;;;-142.75;100.00;79455.16;4933254;29;19958;-63
2023/02/12 09:46:09;;;;;;;14.13;8.30;;;;;;;-142.75;100.00;79457.13;4934121;29;20032;-66
2023/02/12 09:48:52;;;;;;;12.97;7.83;;;;;;;-142.75;100.00;79459.09;4932902;29;20492;-68
2023/02/12 09:51:18;;;;;;;17.00;8.27;;;;;;;-142.75;100.00;79463.03;4938303;29;20023;-66
2023/02/12 09:53:45;;;;;;;;;;;;;;;-142.75;100.00;79459.09;4939961;29;20046;-67
2023/02/12 09:56:13;;;;;;;12.75;7.07;;;;;;;-142.75;100.00;79447.28;4933498;29;19911;-67
2023/02/12 09:58:52;;;;;;;12.27;7.63;;;;;;;-142.75;100.00;79455.16;4934142;29;20505;-67
2023/02/12 10:01:20;;;;;;;14.55;7.88;;;;;;;-142.75;100.00;79457.13;4936022;29;20377;-67
2023/02/12 10:03:48;;;;;;;12.30;7.68;;;;;;;-142.75;100.00;79457.13;4936467;29;20047;-68
2023/02/12 10:06:20;;;;;;;16.17;8.07;;;;;;;-142.75;100.00;79472.88;4936746;29;20015;-67
2023/02/12 10:08:56;;;;;;;12.45;7.22;;;;;;;-142.75;100.00;79468.94;4938283;29;20485;-67
2023/02/12 10:11:30;;;;;;;12.25;6.95;;;;;;;-142.75;100.00;79484.69;4931858;29;20035;-68
2023/02/12 10:14:33;;;;;;;14.52;7.32;;;;;;;-142.75;100.00;79490.59;4935350;29;20038;-68
2023/02/12 10:17:17;;;;;;;13.67;7.60;;;;;;;-142.75;100.00;79502.44;4936756;29;20058;-67
2023/02/12 10:20:14;;;;;;;14.37;8.50;;;;;;;-142.75;100.00;79490.59;4936803;29;20114;-68
2023/02/12 10:22:54;;;;;;;11.60;7.87;;;;;;;-142.75;100.00;79484.69;4936632;29;20042;-67
2023/02/12 10:25:28;;;;;;;14.07;7.50;;;;;;;-142.75;100.00;79465.00;4936747;29;20027;-67
2023/02/12 10:27:58;;;;;;;12.60;7.45;;;;;;;-142.75;100.00;79472.88;4936378;29;20024;-67
2023/02/12 10:30:27;;;;;;;13.38;7.78;;;;;;;-142.75;100.00;79472.88;4935355;29;20019;-68
2023/02/12 10:32:59;;;;;;;15.40;8.82;;;;;;;-142.75;100.00;79465.00;4936565;29;20023;-67
2023/02/12 10:35:25;;;;;;;13.23;7.97;;;;;;;-142.75;100.00;79465.00;4936628;29;20078;-67
2023/02/12 10:37:53;;;;;;;;;;;;;;;-142.75;100.00;79474.84;4936696;29;20031;-68
2023/02/12 10:40:28;;;;;;;13.53;7.70;;;;;;;-142.75;100.00;79472.88;4936417;29;19962;-68
2023/02/12 10:42:58;;;;;;;17.67;8.33;;;;;;;-142.75;100.00;79482.72;4936389;29;20087;-68
2023/02/12 10:45:31;;;;;;;15.00;7.67;;;;;;;-142.75;100.00;79482.72;4936341;29;20415;-68
2023/02/12 10:48:05;;;;;;;13.77;8.10;;;;;;;-142.75;100.00;79488.63;4936004;29;21939;-68
2023/02/12 10:50:55;;;;;;;14.50;7.97;;;;;;;-142.75;100.00;79482.72;4936249;29;20428;-68
2023/02/12 10:53:30;;;;;;;11.90;7.55;;;;;;;-142.75;100.00;79488.63;4934728;29;20167;-67
2023/02/12 10:56:10;;;;;;;13.25;8.10;;;;;;;-142.75;100.00;79492.56;4936076;29;20032;-68
2023/02/12 10:58:39;;;;;;;12.27;7.43;;;;;;;-142.75;100.00;79480.75;4935836;29;20016;-67
2023/02/12 11:01:15;;;;;;;16.02;7.63;;;;;;;-142.75;100.00;79484.69;4934711;29;20428;-68
2023/02/12 11:03:40;;;;;;;15.20;7.88;;;;;;;-142.75;100.00;79492.56;4936063;29;20024;-67
2023/02/12 11:06:20;;;;;;;16.58;7.97;;;;;;;-142.75;100.00;79490.59;4936040;29;20090;-68
2023/02/12 11:08:46;;;;;;;19.02;8.20;;;;;;;-142.75;100.00;79465.00;4935562;29;20039;-68
2023/02/12 11:11:14;;;;;;;;;;;;;;;-142.75;100.00;79445.28;4935084;29;20038;-68
2023/02/12 11:13:45;;;;;;;12.63;7.97;;;;;;;-142.75;100.00;79453.19;4935635;29;19918;-67
2023/02/12 11:16:11;;;;;;;12.40;8.18;;;;;;;-142.75;100.00;79451.22;4935747;29;20035;-66
2023/02/12 11:18:37;;;;;;;13.18;8.35;;;;;;;-142.75;100.00;79437.41;4934193;29;20027;-67
2023/02/12 11:21:07;;;;;;;;;;;;;;;-142.75;100.00;79417.72;4936084;29;20075;-67
2023/02/12 11:23:38;;;;;;;17.25;8.10;;;;;;;-142.75;100.00;79429.53;4933442;29;20384;-67
2023/02/12 11:26:03;;;;;;;16.90;8.68;;;;;;;-142.75;100.00;79427.56;4934345;29;20126;-67
2023/02/12 11:28:29;;;;;;;;;;;;;;;-142.75;100.00;79437.41;4935737;29;20055;-66
2023/02/12 11:30:59;;;;;;;15.05;8.35;;;;;;;-142.75;100.00;79433.47;4934108;29;19929;-64